sensor_id;sensor_type;location;lat;lon;timestamp;temperature;humidity
71039;SHT30;58692;43.212;27.908;2022-08-25T00:02:13;24.23;72.85
71039;SHT30;58692;43.212;27.908;2022-08-25T00:04:39;24.35;72.28
71039;SHT30;58692;43.212;27.908;2022-08-25T00:07:05;24.48;71.74
71039;SHT30;58692;43.212;27.908;2022-08-25T00:09:32;24.57;71.50
71039;SHT30;58692;43.212;27.908;2022-08-25T00:11:58;24.47;71.85
71039;SHT30;58692;43.212;27.908;2022-08-25T00:14:28;24.23;72.89
71039;SHT30;58692;43.212;27.908;2022-08-25T00:16:54;24.31;72.46
71039;SHT30;58692;43.212;27.908;2022-08-25T00:19:23;24.07;73.61
71039;SHT30;58692;43.212;27.908;2022-08-25T00:21:49;23.92;74.44
71039;SHT30;58692;43.212;27.908;2022-08-25T00:24:16;23.80;74.79
71039;SHT30;58692;43.212;27.908;2022-08-25T00:26:45;23.92;73.60
71039;SHT30;58692;43.212;27.908;2022-08-25T00:29:11;23.83;73.63
71039;SHT30;58692;43.212;27.908;2022-08-25T00:31:38;23.97;73.15
71039;SHT30;58692;43.212;27.908;2022-08-25T00:34:06;23.86;73.67
71039;SHT30;58692;43.212;27.908;2022-08-25T00:36:33;23.92;73.75
71039;SHT30;58692;43.212;27.908;2022-08-25T00:38:59;24.06;73.59
71039;SHT30;58692;43.212;27.908;2022-08-25T00:41:25;24.13;73.68
71039;SHT30;58692;43.212;27.908;2022-08-25T00:43:55;24.00;74.27
71039;SHT30;58692;43.212;27.908;2022-08-25T00:46:27;24.04;74.25
71039;SHT30;58692;43.212;27.908;2022-08-25T00:49:00;24.06;74.79
71039;SHT30;58692;43.212;27.908;2022-08-25T00:51:34;24.17;75.00
71039;SHT30;58692;43.212;27.908;2022-08-25T00:54:02;24.20;75.12
71039;SHT30;58692;43.212;27.908;2022-08-25T00:56:28;24.09;75.99
71039;SHT30;58692;43.212;27.908;2022-08-25T00:58:57;24.17;76.26
71039;SHT30;58692;43.212;27.908;2022-08-25T01:01:24;24.16;76.66
71039;SHT30;58692;43.212;27.908;2022-08-25T01:03:51;24.14;76.62
71039;SHT30;58692;43.212;27.908;2022-08-25T01:06:16;24.21;75.80
71039;SHT30;58692;43.212;27.908;2022-08-25T01:08:42;24.23;75.60
71039;SHT30;58692;43.212;27.908;2022-08-25T01:11:09;24.27;75.15
71039;SHT30;58692;43.212;27.908;2022-08-25T01:13:44;24.20;74.52
71039;SHT30;58692;43.212;27.908;2022-08-25T01:16:12;24.24;73.90
71039;SHT30;58692;43.212;27.908;2022-08-25T01:18:47;24.27;73.60
71039;SHT30;58692;43.212;27.908;2022-08-25T01:21:13;24.27;73.00
71039;SHT30;58692;43.212;27.908;2022-08-25T01:23:39;24.28;72.76
71039;SHT30;58692;43.212;27.908;2022-08-25T01:26:19;24.24;72.34
71039;SHT30;58692;43.212;27.908;2022-08-25T01:28:47;23.82;73.28
71039;SHT30;58692;43.212;27.908;2022-08-25T01:31:29;23.87;73.13
71039;SHT30;58692;43.212;27.908;2022-08-25T01:33:55;23.92;72.54
71039;SHT30;58692;43.212;27.908;2022-08-25T01:36:22;23.93;72.24
71039;SHT30;58692;43.212;27.908;2022-08-25T01:38:48;23.92;70.90
71039;SHT30;58692;43.212;27.908;2022-08-25T01:41:26;23.93;69.97
71039;SHT30;58692;43.212;27.908;2022-08-25T01:43:55;23.94;69.31
71039;SHT30;58692;43.212;27.908;2022-08-25T01:46:20;24.03;68.86
71039;SHT30;58692;43.212;27.908;2022-08-25T01:48:46;24.07;68.46
71039;SHT30;58692;43.212;27.908;2022-08-25T01:51:14;24.00;68.38
71039;SHT30;58692;43.212;27.908;2022-08-25T01:53:40;24.14;67.60
71039;SHT30;58692;43.212;27.908;2022-08-25T01:56:09;24.13;67.45
71039;SHT30;58692;43.212;27.908;2022-08-25T01:58:39;24.14;67.14
71039;SHT30;58692;43.212;27.908;2022-08-25T02:01:09;24.16;67.09
71039;SHT30;58692;43.212;27.908;2022-08-25T02:03:38;24.27;66.81
71039;SHT30;58692;43.212;27.908;2022-08-25T02:06:05;24.34;66.47
71039;SHT30;58692;43.212;27.908;2022-08-25T02:08:31;24.37;66.50
71039;SHT30;58692;43.212;27.908;2022-08-25T02:10:57;24.33;66.65
71039;SHT30;58692;43.212;27.908;2022-08-25T02:13:22;24.30;66.73
71039;SHT30;58692;43.212;27.908;2022-08-25T02:15:51;24.25;66.67
71039;SHT30;58692;43.212;27.908;2022-08-25T02:18:18;24.21;66.72
71039;SHT30;58692;43.212;27.908;2022-08-25T02:20:44;24.23;66.64
71039;SHT30;58692;43.212;27.908;2022-08-25T02:23:10;24.23;66.69
71039;SHT30;58692;43.212;27.908;2022-08-25T02:25:38;24.33;66.33
71039;SHT30;58692;43.212;27.908;2022-08-25T02:28:04;24.35;66.32
71039;SHT30;58692;43.212;27.908;2022-08-25T02:30:30;24.34;66.58
71039;SHT30;58692;43.212;27.908;2022-08-25T02:32:56;24.40;66.38
71039;SHT30;58692;43.212;27.908;2022-08-25T02:35:26;24.30;66.51
71039;SHT30;58692;43.212;27.908;2022-08-25T02:37:52;24.13;66.83
71039;SHT30;58692;43.212;27.908;2022-08-25T02:40:18;24.14;66.78
71039;SHT30;58692;43.212;27.908;2022-08-25T02:42:46;23.93;67.56
71039;SHT30;58692;43.212;27.908;2022-08-25T02:45:11;24.02;67.28
71039;SHT30;58692;43.212;27.908;2022-08-25T02:47:37;23.83;67.52
71039;SHT30;58692;43.212;27.908;2022-08-25T02:50:04;23.76;67.75
71039;SHT30;58692;43.212;27.908;2022-08-25T02:52:30;23.80;67.79
71039;SHT30;58692;43.212;27.908;2022-08-25T02:54:55;23.84;67.62
71039;SHT30;58692;43.212;27.908;2022-08-25T02:57:21;23.92;67.44
71039;SHT30;58692;43.212;27.908;2022-08-25T02:59:46;23.90;67.58
71039;SHT30;58692;43.212;27.908;2022-08-25T03:02:14;23.96;67.47
71039;SHT30;58692;43.212;27.908;2022-08-25T03:04:41;23.94;67.57
71039;SHT30;58692;43.212;27.908;2022-08-25T03:07:09;24.02;67.51
71039;SHT30;58692;43.212;27.908;2022-08-25T03:09:34;24.14;67.12
71039;SHT30;58692;43.212;27.908;2022-08-25T03:12:00;23.94;67.78
71039;SHT30;58692;43.212;27.908;2022-08-25T03:14:26;23.90;68.04
71039;SHT30;58692;43.212;27.908;2022-08-25T03:16:52;23.96;68.10
71039;SHT30;58692;43.212;27.908;2022-08-25T03:19:17;23.99;67.97
71039;SHT30;58692;43.212;27.908;2022-08-25T03:21:43;24.07;67.86
71039;SHT30;58692;43.212;27.908;2022-08-25T03:24:10;24.07;67.90
71039;SHT30;58692;43.212;27.908;2022-08-25T03:26:36;24.04;68.12
71039;SHT30;58692;43.212;27.908;2022-08-25T03:29:17;24.16;67.80
71039;SHT30;58692;43.212;27.908;2022-08-25T03:31:43;24.18;67.75
71039;SHT30;58692;43.212;27.908;2022-08-25T03:34:12;24.18;67.76
71039;SHT30;58692;43.212;27.908;2022-08-25T03:36:37;24.03;68.33
71039;SHT30;58692;43.212;27.908;2022-08-25T03:39:03;24.17;68.00
71039;SHT30;58692;43.212;27.908;2022-08-25T03:41:32;24.14;68.12
71039;SHT30;58692;43.212;27.908;2022-08-25T03:43:58;24.17;68.15
71039;SHT30;58692;43.212;27.908;2022-08-25T03:46:28;23.90;68.91
71039;SHT30;58692;43.212;27.908;2022-08-25T03:48:54;23.83;69.27
71039;SHT30;58692;43.212;27.908;2022-08-25T03:51:22;23.96;68.92
71039;SHT30;58692;43.212;27.908;2022-08-25T03:53:48;24.07;68.69
71039;SHT30;58692;43.212;27.908;2022-08-25T03:56:14;24.13;68.34
71039;SHT30;58692;43.212;27.908;2022-08-25T03:58:39;24.14;68.44
71039;SHT30;58692;43.212;27.908;2022-08-25T04:01:05;23.97;69.03
71039;SHT30;58692;43.212;27.908;2022-08-25T04:03:30;24.18;68.35
71039;SHT30;58692;43.212;27.908;2022-08-25T04:06:00;24.25;67.98
71039;SHT30;58692;43.212;27.908;2022-08-25T04:08:26;24.33;67.78
71039;SHT30;58692;43.212;27.908;2022-08-25T04:10:51;24.40;67.66
71039;SHT30;58692;43.212;27.908;2022-08-25T04:13:17;24.41;67.53
71039;SHT30;58692;43.212;27.908;2022-08-25T04:15:43;24.40;67.80
71039;SHT30;58692;43.212;27.908;2022-08-25T04:18:09;24.35;68.01
71039;SHT30;58692;43.212;27.908;2022-08-25T04:20:36;24.40;67.98
71039;SHT30;58692;43.212;27.908;2022-08-25T04:23:02;24.53;67.58
71039;SHT30;58692;43.212;27.908;2022-08-25T04:25:28;24.57;67.50
71039;SHT30;58692;43.212;27.908;2022-08-25T04:27:54;24.65;67.31
71039;SHT30;58692;43.212;27.908;2022-08-25T04:30:20;24.76;67.18
71039;SHT30;58692;43.212;27.908;2022-08-25T04:32:46;25.20;65.85
71039;SHT30;58692;43.212;27.908;2022-08-25T04:35:13;25.53;64.75
71039;SHT30;58692;43.212;27.908;2022-08-25T04:37:39;25.56;64.45
71039;SHT30;58692;43.212;27.908;2022-08-25T04:40:05;25.84;64.00
71039;SHT30;58692;43.212;27.908;2022-08-25T04:42:31;26.02;63.39
71039;SHT30;58692;43.212;27.908;2022-08-25T04:44:58;25.87;63.82
71039;SHT30;58692;43.212;27.908;2022-08-25T04:47:26;25.43;65.31
71039;SHT30;58692;43.212;27.908;2022-08-25T04:49:52;25.42;65.20
71039;SHT30;58692;43.212;27.908;2022-08-25T04:52:18;25.88;63.80
71039;SHT30;58692;43.212;27.908;2022-08-25T04:54:45;26.00;63.56
71039;SHT30;58692;43.212;27.908;2022-08-25T04:57:11;26.08;63.89
71039;SHT30;58692;43.212;27.908;2022-08-25T04:59:37;26.17;63.88
71039;SHT30;58692;43.212;27.908;2022-08-25T05:02:04;26.11;64.38
71039;SHT30;58692;43.212;27.908;2022-08-25T05:04:32;26.35;63.88
71039;SHT30;58692;43.212;27.908;2022-08-25T05:07:02;26.52;63.44
71039;SHT30;58692;43.212;27.908;2022-08-25T05:09:27;26.78;62.89
71039;SHT30;58692;43.212;27.908;2022-08-25T05:11:53;26.72;63.38
71039;SHT30;58692;43.212;27.908;2022-08-25T05:14:20;26.78;64.21
71039;SHT30;58692;43.212;27.908;2022-08-25T05:16:47;26.93;65.00
71039;SHT30;58692;43.212;27.908;2022-08-25T05:19:13;27.04;65.91
71039;SHT30;58692;43.212;27.908;2022-08-25T05:21:39;27.20;65.68
71039;SHT30;58692;43.212;27.908;2022-08-25T05:24:05;27.04;66.63
71039;SHT30;58692;43.212;27.908;2022-08-25T05:26:33;26.93;67.36
71039;SHT30;58692;43.212;27.908;2022-08-25T05:29:00;26.56;68.91
71039;SHT30;58692;43.212;27.908;2022-08-25T05:31:27;26.61;69.00
71039;SHT30;58692;43.212;27.908;2022-08-25T05:33:53;26.67;69.46
71039;SHT30;58692;43.212;27.908;2022-08-25T05:36:21;26.59;69.57
71039;SHT30;58692;43.212;27.908;2022-08-25T05:38:47;26.49;69.88
71039;SHT30;58692;43.212;27.908;2022-08-25T05:41:16;26.55;70.06
71039;SHT30;58692;43.212;27.908;2022-08-25T05:43:43;26.68;69.79
71039;SHT30;58692;43.212;27.908;2022-08-25T05:46:09;26.63;70.03
71039;SHT30;58692;43.212;27.908;2022-08-25T05:48:35;26.56;70.26
71039;SHT30;58692;43.212;27.908;2022-08-25T05:51:03;26.53;70.49
71039;SHT30;58692;43.212;27.908;2022-08-25T05:53:35;26.44;70.95
71039;SHT30;58692;43.212;27.908;2022-08-25T05:56:05;26.65;70.28
71039;SHT30;58692;43.212;27.908;2022-08-25T05:58:35;26.55;70.68
71039;SHT30;58692;43.212;27.908;2022-08-25T06:01:07;26.82;69.96
71039;SHT30;58692;43.212;27.908;2022-08-25T06:03:49;27.06;69.10
71039;SHT30;58692;43.212;27.908;2022-08-25T06:06:18;27.44;68.19
71039;SHT30;58692;43.212;27.908;2022-08-25T06:08:44;28.00;66.62
71039;SHT30;58692;43.212;27.908;2022-08-25T06:11:11;28.62;64.88
71039;SHT30;58692;43.212;27.908;2022-08-25T06:13:37;28.75;64.30
71039;SHT30;58692;43.212;27.908;2022-08-25T06:16:05;29.30;62.93
71039;SHT30;58692;43.212;27.908;2022-08-25T06:18:31;29.75;61.73
71039;SHT30;58692;43.212;27.908;2022-08-25T06:20:57;30.11;61.00
71039;SHT30;58692;43.212;27.908;2022-08-25T06:23:22;30.35;60.65
71039;SHT30;58692;43.212;27.908;2022-08-25T06:25:49;30.42;60.97
71039;SHT30;58692;43.212;27.908;2022-08-25T06:28:14;30.06;61.58
71039;SHT30;58692;43.212;27.908;2022-08-25T06:30:40;30.56;60.74
71039;SHT30;58692;43.212;27.908;2022-08-25T06:33:06;31.16;59.07
71039;SHT30;58692;43.212;27.908;2022-08-25T06:35:31;31.69;58.25
71039;SHT30;58692;43.212;27.908;2022-08-25T06:37:57;31.42;58.95
71039;SHT30;58692;43.212;27.908;2022-08-25T06:40:23;31.92;57.85
71039;SHT30;58692;43.212;27.908;2022-08-25T06:42:50;31.77;58.39
71039;SHT30;58692;43.212;27.908;2022-08-25T06:45:15;32.02;57.99
71039;SHT30;58692;43.212;27.908;2022-08-25T06:47:41;32.06;57.89
71039;SHT30;58692;43.212;27.908;2022-08-25T06:50:07;31.69;58.40
71039;SHT30;58692;43.212;27.908;2022-08-25T06:52:33;31.55;58.84
71039;SHT30;58692;43.212;27.908;2022-08-25T06:55:00;31.68;58.39
71039;SHT30;58692;43.212;27.908;2022-08-25T06:57:25;31.92;57.92
71039;SHT30;58692;43.212;27.908;2022-08-25T06:59:51;32.16;57.35
71039;SHT30;58692;43.212;27.908;2022-08-25T07:02:16;32.09;57.40
71039;SHT30;58692;43.212;27.908;2022-08-25T07:04:42;31.75;57.72
71039;SHT30;58692;43.212;27.908;2022-08-25T07:07:08;30.98;59.90
71039;SHT30;58692;43.212;27.908;2022-08-25T07:09:33;30.40;61.82
71039;SHT30;58692;43.212;27.908;2022-08-25T07:12:02;30.02;62.25
71039;SHT30;58692;43.212;27.908;2022-08-25T07:14:29;29.84;62.75
71039;SHT30;58692;43.212;27.908;2022-08-25T07:16:55;29.57;63.83
71039;SHT30;58692;43.212;27.908;2022-08-25T07:19:21;29.65;63.39
71039;SHT30;58692;43.212;27.908;2022-08-25T07:21:49;29.75;63.13
71039;SHT30;58692;43.212;27.908;2022-08-25T07:24:15;30.09;62.16
71039;SHT30;58692;43.212;27.908;2022-08-25T07:26:42;30.21;61.99
71039;SHT30;58692;43.212;27.908;2022-08-25T07:29:13;30.39;61.09
71039;SHT30;58692;43.212;27.908;2022-08-25T07:31:39;30.23;61.71
71039;SHT30;58692;43.212;27.908;2022-08-25T07:34:06;29.98;62.25
71039;SHT30;58692;43.212;27.908;2022-08-25T07:36:47;30.16;62.04
71039;SHT30;58692;43.212;27.908;2022-08-25T07:39:12;30.43;61.31
71039;SHT30;58692;43.212;27.908;2022-08-25T07:41:40;30.52;60.73
71039;SHT30;58692;43.212;27.908;2022-08-25T07:44:07;30.82;60.35
71039;SHT30;58692;43.212;27.908;2022-08-25T07:46:34;31.14;59.35
71039;SHT30;58692;43.212;27.908;2022-08-25T07:48:59;31.03;58.86
71039;SHT30;58692;43.212;27.908;2022-08-25T07:51:25;30.94;58.22
71039;SHT30;58692;43.212;27.908;2022-08-25T07:53:50;31.14;58.07
71039;SHT30;58692;43.212;27.908;2022-08-25T07:56:16;31.54;57.05
71039;SHT30;58692;43.212;27.908;2022-08-25T07:58:43;31.85;56.17
71039;SHT30;58692;43.212;27.908;2022-08-25T08:01:19;32.02;55.56
71039;SHT30;58692;43.212;27.908;2022-08-25T08:03:46;32.30;54.69
71039;SHT30;58692;43.212;27.908;2022-08-25T08:06:14;32.19;54.68
71039;SHT30;58692;43.212;27.908;2022-08-25T08:08:42;32.26;53.97
71039;SHT30;58692;43.212;27.908;2022-08-25T08:11:26;32.67;52.43
71039;SHT30;58692;43.212;27.908;2022-08-25T08:13:54;32.94;51.05
71039;SHT30;58692;43.212;27.908;2022-08-25T08:16:22;32.81;50.19
71039;SHT30;58692;43.212;27.908;2022-08-25T08:18:48;33.04;50.09
71039;SHT30;58692;43.212;27.908;2022-08-25T08:21:20;33.14;50.16
71039;SHT30;58692;43.212;27.908;2022-08-25T08:23:48;33.50;49.65
71039;SHT30;58692;43.212;27.908;2022-08-25T08:26:14;33.73;49.28
71039;SHT30;58692;43.212;27.908;2022-08-25T08:28:40;33.72;49.61
71039;SHT30;58692;43.212;27.908;2022-08-25T08:31:05;33.47;50.05
71039;SHT30;58692;43.212;27.908;2022-08-25T08:33:32;33.51;48.99
71039;SHT30;58692;43.212;27.908;2022-08-25T08:36:02;33.50;47.97
71039;SHT30;58692;43.212;27.908;2022-08-25T08:38:28;33.68;47.26
71039;SHT30;58692;43.212;27.908;2022-08-25T08:43:55;35.28;45.17
71039;SHT30;58692;43.212;27.908;2022-08-25T08:46:34;34.95;46.04
71039;SHT30;58692;43.212;27.908;2022-08-25T08:49:06;35.19;45.57
71039;SHT30;58692;43.212;27.908;2022-08-25T08:51:43;35.90;44.38
71039;SHT30;58692;43.212;27.908;2022-08-25T08:54:13;36.28;43.39
71039;SHT30;58692;43.212;27.908;2022-08-25T08:56:43;36.19;43.66
71039;SHT30;58692;43.212;27.908;2022-08-25T08:59:14;35.54;43.50
71039;SHT30;58692;43.212;27.908;2022-08-25T09:01:45;34.98;44.73
71039;SHT30;58692;43.212;27.908;2022-08-25T09:04:14;34.43;45.68
71039;SHT30;58692;43.212;27.908;2022-08-25T09:06:45;33.86;45.81
71039;SHT30;58692;43.212;27.908;2022-08-25T09:09:19;34.12;45.03
71039;SHT30;58692;43.212;27.908;2022-08-25T09:11:56;34.46;44.11
71039;SHT30;58692;43.212;27.908;2022-08-25T09:20:07;35.03;41.86
71039;SHT30;58692;43.212;27.908;2022-08-25T09:22:55;35.05;41.90
71039;SHT30;58692;43.212;27.908;2022-08-25T09:28:19;35.54;40.86
71039;SHT30;58692;43.212;27.908;2022-08-25T09:31:03;36.29;39.72
71039;SHT30;58692;43.212;27.908;2022-08-25T09:33:31;35.99;40.28
71039;SHT30;58692;43.212;27.908;2022-08-25T09:35:57;36.18;39.06
71039;SHT30;58692;43.212;27.908;2022-08-25T09:38:24;36.30;38.82
71039;SHT30;58692;43.212;27.908;2022-08-25T09:40:54;36.09;39.58
71039;SHT30;58692;43.212;27.908;2022-08-25T09:46:10;36.57;37.43
71039;SHT30;58692;43.212;27.908;2022-08-25T09:48:47;36.43;36.79
71039;SHT30;58692;43.212;27.908;2022-08-25T09:51:22;37.07;35.62
71039;SHT30;58692;43.212;27.908;2022-08-25T09:54:05;37.54;34.68
71039;SHT30;58692;43.212;27.908;2022-08-25T09:56:56;36.44;35.55
71039;SHT30;58692;43.212;27.908;2022-08-25T09:59:24;37.06;35.13
71039;SHT30;58692;43.212;27.908;2022-08-25T10:01:52;37.17;35.14
71039;SHT30;58692;43.212;27.908;2022-08-25T10:04:38;36.63;35.10
71039;SHT30;58692;43.212;27.908;2022-08-25T10:07:27;35.79;36.04
71039;SHT30;58692;43.212;27.908;2022-08-25T10:09:59;35.88;35.67
71039;SHT30;58692;43.212;27.908;2022-08-25T10:12:41;35.58;36.46
71039;SHT30;58692;43.212;27.908;2022-08-25T10:15:20;35.19;36.17
71039;SHT30;58692;43.212;27.908;2022-08-25T10:17:46;35.07;36.84
71039;SHT30;58692;43.212;27.908;2022-08-25T10:20:15;34.90;36.47
71039;SHT30;58692;43.212;27.908;2022-08-25T10:22:45;34.64;37.52
71039;SHT30;58692;43.212;27.908;2022-08-25T10:25:15;34.53;38.00
71039;SHT30;58692;43.212;27.908;2022-08-25T10:33:16;35.19;37.29
71039;SHT30;58692;43.212;27.908;2022-08-25T10:41:37;35.31;37.30
71039;SHT30;58692;43.212;27.908;2022-08-25T10:44:12;34.80;37.38
71039;SHT30;58692;43.212;27.908;2022-08-25T10:49:47;35.72;36.89
71039;SHT30;58692;43.212;27.908;2022-08-25T10:52:22;35.38;37.80
71039;SHT30;58692;43.212;27.908;2022-08-25T11:00:22;34.74;38.34
71039;SHT30;58692;43.212;27.908;2022-08-25T11:03:06;34.94;37.35
71039;SHT30;58692;43.212;27.908;2022-08-25T11:05:41;35.00;36.82
71039;SHT30;58692;43.212;27.908;2022-08-25T11:08:14;34.90;36.78
71039;SHT30;58692;43.212;27.908;2022-08-25T11:10:42;34.37;37.79
71039;SHT30;58692;43.212;27.908;2022-08-25T11:13:15;34.19;38.13
71039;SHT30;58692;43.212;27.908;2022-08-25T11:15:54;33.85;38.45
71039;SHT30;58692;43.212;27.908;2022-08-25T11:18:27;33.57;39.36
71039;SHT30;58692;43.212;27.908;2022-08-25T11:21:00;33.55;39.79
71039;SHT30;58692;43.212;27.908;2022-08-25T11:23:34;33.10;40.33
71039;SHT30;58692;43.212;27.908;2022-08-25T11:26:12;32.91;41.23
71039;SHT30;58692;43.212;27.908;2022-08-25T11:29:00;32.94;39.08
71039;SHT30;58692;43.212;27.908;2022-08-25T11:31:27;32.80;39.10
71039;SHT30;58692;43.212;27.908;2022-08-25T11:33:54;32.80;39.25
71039;SHT30;58692;43.212;27.908;2022-08-25T11:36:32;32.90;37.42
71039;SHT30;58692;43.212;27.908;2022-08-25T11:42:19;32.88;38.48
71039;SHT30;58692;43.212;27.908;2022-08-25T11:47:32;32.57;39.27
71039;SHT30;58692;43.212;27.908;2022-08-25T11:50:07;32.26;39.85
71039;SHT30;58692;43.212;27.908;2022-08-25T11:55:15;32.22;40.36
71039;SHT30;58692;43.212;27.908;2022-08-25T11:57:43;32.33;40.40
71039;SHT30;58692;43.212;27.908;2022-08-25T12:11:53;32.63;41.14
71039;SHT30;58692;43.212;27.908;2022-08-25T12:14:40;32.01;42.85
71039;SHT30;58692;43.212;27.908;2022-08-25T12:17:19;31.86;44.35
71039;SHT30;58692;43.212;27.908;2022-08-25T12:22:38;32.35;43.04
71039;SHT30;58692;43.212;27.908;2022-08-25T12:25:20;32.70;41.36
71039;SHT30;58692;43.212;27.908;2022-08-25T12:28:08;32.61;41.21
71039;SHT30;58692;43.212;27.908;2022-08-25T12:30:49;32.49;40.31
71039;SHT30;58692;43.212;27.908;2022-08-25T12:33:49;32.44;39.19
71039;SHT30;58692;43.212;27.908;2022-08-25T12:36:27;32.39;39.22
71039;SHT30;58692;43.212;27.908;2022-08-25T12:38:53;32.36;40.12
71039;SHT30;58692;43.212;27.908;2022-08-25T12:41:22;32.40;40.79
71039;SHT30;58692;43.212;27.908;2022-08-25T12:43:50;32.25;41.89
71039;SHT30;58692;43.212;27.908;2022-08-25T12:46:35;32.35;42.09
71039;SHT30;58692;43.212;27.908;2022-08-25T12:49:29;32.13;42.83
71039;SHT30;58692;43.212;27.908;2022-08-25T12:52:04;31.98;42.83
71039;SHT30;58692;43.212;27.908;2022-08-25T13:00:22;31.79;41.76
71039;SHT30;58692;43.212;27.908;2022-08-25T13:05:39;31.88;41.40
71039;SHT30;58692;43.212;27.908;2022-08-25T13:14:17;31.68;41.81
71039;SHT30;58692;43.212;27.908;2022-08-25T13:16:57;31.51;42.58
71039;SHT30;58692;43.212;27.908;2022-08-25T13:19:25;31.49;42.97
71039;SHT30;58692;43.212;27.908;2022-08-25T13:21:52;31.27;43.10
71039;SHT30;58692;43.212;27.908;2022-08-25T13:26:59;31.54;43.27
71039;SHT30;58692;43.212;27.908;2022-08-25T13:29:30;31.44;43.98
71039;SHT30;58692;43.212;27.908;2022-08-25T13:32:04;31.41;44.36
71039;SHT30;58692;43.212;27.908;2022-08-25T13:34:33;31.41;43.50
71039;SHT30;58692;43.212;27.908;2022-08-25T13:37:10;31.41;42.98
71039;SHT30;58692;43.212;27.908;2022-08-25T13:42:33;31.35;42.78
71039;SHT30;58692;43.212;27.908;2022-08-25T13:45:01;31.33;42.92
71039;SHT30;58692;43.212;27.908;2022-08-25T13:47:34;31.11;44.00
71039;SHT30;58692;43.212;27.908;2022-08-25T13:53:02;31.06;44.25
71039;SHT30;58692;43.212;27.908;2022-08-25T13:58:16;31.28;44.66
71039;SHT30;58692;43.212;27.908;2022-08-25T14:03:32;31.16;44.73
71039;SHT30;58692;43.212;27.908;2022-08-25T14:14:01;30.22;45.94
71039;SHT30;58692;43.212;27.908;2022-08-25T14:16:28;30.29;45.66
71039;SHT30;58692;43.212;27.908;2022-08-25T14:18:57;30.23;45.55
71039;SHT30;58692;43.212;27.908;2022-08-25T14:21:28;30.05;45.74
71039;SHT30;58692;43.212;27.908;2022-08-25T14:23:55;30.05;45.79
71039;SHT30;58692;43.212;27.908;2022-08-25T14:26:21;30.06;45.09
71039;SHT30;58692;43.212;27.908;2022-08-25T14:28:47;29.85;45.63
71039;SHT30;58692;43.212;27.908;2022-08-25T14:31:24;29.92;45.65
71039;SHT30;58692;43.212;27.908;2022-08-25T14:33:56;29.92;45.91
71039;SHT30;58692;43.212;27.908;2022-08-25T14:36:22;29.86;46.05
71039;SHT30;58692;43.212;27.908;2022-08-25T14:38:48;29.78;46.44
71039;SHT30;58692;43.212;27.908;2022-08-25T14:41:14;29.71;46.34
71039;SHT30;58692;43.212;27.908;2022-08-25T14:43:40;29.72;46.38
71039;SHT30;58692;43.212;27.908;2022-08-25T14:46:14;29.58;46.92
71039;SHT30;58692;43.212;27.908;2022-08-25T14:48:43;29.40;47.06
71039;SHT30;58692;43.212;27.908;2022-08-25T14:51:11;29.33;47.44
71039;SHT30;58692;43.212;27.908;2022-08-25T14:53:38;29.50;47.13
71039;SHT30;58692;43.212;27.908;2022-08-25T14:56:04;29.57;47.03
71039;SHT30;58692;43.212;27.908;2022-08-25T14:58:30;29.54;47.16
71039;SHT30;58692;43.212;27.908;2022-08-25T15:00:55;29.49;47.30
71039;SHT30;58692;43.212;27.908;2022-08-25T15:03:30;29.43;47.49
71039;SHT30;58692;43.212;27.908;2022-08-25T15:05:56;29.30;47.84
71039;SHT30;58692;43.212;27.908;2022-08-25T15:08:21;29.24;48.04
71039;SHT30;58692;43.212;27.908;2022-08-25T15:11:03;29.30;48.31
71039;SHT30;58692;43.212;27.908;2022-08-25T15:13:28;29.27;48.56
71039;SHT30;58692;43.212;27.908;2022-08-25T15:15:54;29.37;48.52
71039;SHT30;58692;43.212;27.908;2022-08-25T15:18:20;29.49;48.37
71039;SHT30;58692;43.212;27.908;2022-08-25T15:20:47;29.61;48.14
71039;SHT30;58692;43.212;27.908;2022-08-25T15:23:13;29.43;48.41
71039;SHT30;58692;43.212;27.908;2022-08-25T15:25:40;29.37;48.59
71039;SHT30;58692;43.212;27.908;2022-08-25T15:28:07;29.53;48.27
71039;SHT30;58692;43.212;27.908;2022-08-25T15:30:34;29.53;48.31
71039;SHT30;58692;43.212;27.908;2022-08-25T15:33:00;29.49;48.41
71039;SHT30;58692;43.212;27.908;2022-08-25T15:35:26;29.27;48.73
71039;SHT30;58692;43.212;27.908;2022-08-25T15:38:11;29.33;48.62
71039;SHT30;58692;43.212;27.908;2022-08-25T15:40:37;29.35;48.48
71039;SHT30;58692;43.212;27.908;2022-08-25T15:43:04;29.33;48.49
71039;SHT30;58692;43.212;27.908;2022-08-25T15:45:31;29.46;48.23
71039;SHT30;58692;43.212;27.908;2022-08-25T15:47:57;29.35;48.16
71039;SHT30;58692;43.212;27.908;2022-08-25T15:50:24;29.40;47.98
71039;SHT30;58692;43.212;27.908;2022-08-25T15:52:51;29.38;47.09
71039;SHT30;58692;43.212;27.908;2022-08-25T15:55:17;29.33;47.06
71039;SHT30;58692;43.212;27.908;2022-08-25T15:57:42;29.21;46.68
71039;SHT30;58692;43.212;27.908;2022-08-25T16:00:09;29.24;46.62
71039;SHT30;58692;43.212;27.908;2022-08-25T16:02:37;29.30;46.64
71039;SHT30;58692;43.212;27.908;2022-08-25T16:05:05;29.16;47.22
71039;SHT30;58692;43.212;27.908;2022-08-25T16:07:31;29.07;47.62
71039;SHT30;58692;43.212;27.908;2022-08-25T16:09:57;29.14;47.56
71039;SHT30;58692;43.212;27.908;2022-08-25T16:12:24;29.07;47.84
71039;SHT30;58692;43.212;27.908;2022-08-25T16:14:50;29.06;47.89
71039;SHT30;58692;43.212;27.908;2022-08-25T16:17:17;28.78;48.29
71039;SHT30;58692;43.212;27.908;2022-08-25T16:22:47;28.63;46.91
71039;SHT30;58692;43.212;27.908;2022-08-25T16:25:13;28.52;46.86
71039;SHT30;58692;43.212;27.908;2022-08-25T16:27:39;28.58;45.79
71039;SHT30;58692;43.212;27.908;2022-08-25T16:30:07;28.73;45.75
71039;SHT30;58692;43.212;27.908;2022-08-25T16:32:33;28.59;45.62
71039;SHT30;58692;43.212;27.908;2022-08-25T16:34:58;28.62;45.58
71039;SHT30;58692;43.212;27.908;2022-08-25T16:37:24;28.66;44.76
71039;SHT30;58692;43.212;27.908;2022-08-25T16:39:51;28.65;44.70
71039;SHT30;58692;43.212;27.908;2022-08-25T16:42:17;28.65;44.78
71039;SHT30;58692;43.212;27.908;2022-08-25T16:44:43;28.69;44.86
71039;SHT30;58692;43.212;27.908;2022-08-25T16:47:09;28.52;45.37
71039;SHT30;58692;43.212;27.908;2022-08-25T16:49:37;28.55;45.75
71039;SHT30;58692;43.212;27.908;2022-08-25T16:52:03;28.65;45.76
71039;SHT30;58692;43.212;27.908;2022-08-25T16:54:48;28.53;46.25
71039;SHT30;58692;43.212;27.908;2022-08-25T16:57:29;28.31;46.98
71039;SHT30;58692;43.212;27.908;2022-08-25T16:59:55;28.36;47.02
71039;SHT30;58692;43.212;27.908;2022-08-25T17:02:20;28.39;47.19
71039;SHT30;58692;43.212;27.908;2022-08-25T17:04:46;28.36;47.36